createdAt,value
2017-01-07T00:00:59.325Z,91.96
2017-01-07T00:01:59.273Z,91.49
2017-01-07T00:02:59.226Z,91.96
2017-01-07T00:03:59.177Z,91.86
2017-01-07T00:04:59.129Z,92.05
2017-01-07T00:05:59.081Z,92.15
2017-01-07T00:06:59.033Z,91.86
2017-01-07T00:07:58.986Z,91.96
2017-01-07T00:08:58.939Z,92.05
2017-01-07T00:09:58.891Z,91.86
2017-01-07T00:10:58.842Z,92.15
2017-01-07T00:11:58.794Z,91.86
2017-01-07T00:12:58.747Z,91.96
2017-01-07T00:13:58.700Z,91.96
2017-01-07T00:14:58.652Z,91.96
2017-01-07T00:15:58.604Z,92.05
2017-01-07T00:16:58.555Z,92.05
2017-01-07T00:17:58.507Z,92.05
2017-01-07T00:18:58.461Z,91.86
2017-01-07T00:19:58.413Z,92.24
2017-01-07T00:20:58.365Z,92.33
2017-01-07T00:21:58.320Z,92.43
2017-01-07T00:22:58.270Z,92.24
2017-01-07T00:23:58.221Z,92.24
2017-01-07T00:24:58.173Z,91.96
2017-01-07T00:25:58.126Z,91.58
2017-01-07T00:26:58.077Z,91.58
2017-01-07T00:27:58.032Z,91.49
2017-01-07T00:28:57.983Z,91.96
2017-01-07T00:29:57.933Z,92.05
2017-01-07T00:30:57.887Z,92.15
2017-01-07T00:31:57.837Z,92.15
2017-01-07T00:32:57.790Z,92.15
2017-01-07T00:33:57.743Z,92.05
2017-01-07T00:34:57.697Z,91.86
2017-01-07T00:35:57.647Z,91.86
2017-01-07T00:36:57.599Z,92.05
2017-01-07T00:37:57.552Z,92.05
2017-01-07T00:38:57.504Z,92.05
2017-01-07T00:39:57.453Z,92.05
2017-01-07T00:40:57.407Z,91.96
2017-01-07T00:41:57.360Z,91.96
2017-01-07T00:42:57.312Z,92.24
2017-01-07T00:43:57.263Z,92.24
2017-01-07T00:44:57.216Z,92.15
2017-01-07T00:45:57.168Z,91.39
2017-01-07T00:46:57.119Z,91.67
2017-01-07T00:47:57.073Z,91.77
2017-01-07T00:48:57.025Z,91.96
2017-01-07T00:49:56.978Z,91.86
2017-01-07T00:50:56.929Z,92.05
2017-01-07T00:51:56.878Z,91.86
2017-01-07T00:52:56.832Z,92.33
2017-01-07T00:53:56.785Z,92.05
2017-01-07T00:54:56.736Z,91.77
2017-01-07T00:55:56.690Z,91.77
2017-01-07T00:56:56.641Z,92.05
2017-01-07T00:57:56.592Z,91.77
2017-01-07T00:58:56.544Z,91.86
2017-01-07T00:59:56.495Z,92.05
2017-01-07T01:00:56.447Z,92.33
2017-01-07T01:01:56.398Z,91.96
2017-01-07T01:02:56.353Z,92.24
2017-01-07T01:03:56.303Z,91.58
2017-01-07T01:04:56.255Z,91.49
2017-01-07T01:05:56.207Z,91.49
2017-01-07T01:06:56.159Z,92.33
2017-01-07T01:07:56.110Z,92.33
2017-01-07T01:08:56.064Z,91.39
2017-01-07T01:09:56.014Z,91.49
2017-01-07T01:10:55.967Z,91.58
2017-01-07T01:11:55.918Z,91.58
2017-01-07T01:12:55.871Z,91.49
2017-01-07T01:13:55.822Z,91.39
2017-01-07T01:14:55.776Z,91.39
2017-01-07T01:15:55.726Z,91.49
2017-01-07T01:16:55.680Z,91.39
2017-01-07T01:17:55.629Z,91.39
2017-01-07T01:18:55.584Z,91.49
2017-01-07T01:19:55.534Z,91.58
2017-01-07T01:20:55.488Z,91.39
2017-01-07T01:21:55.438Z,91.67
2017-01-07T01:22:55.390Z,91.58
2017-01-07T01:23:55.342Z,91.3
2017-01-07T01:24:55.295Z,91.58
2017-01-07T01:25:55.247Z,91.39
2017-01-07T01:26:55.197Z,91.58
2017-01-07T01:27:55.150Z,90.83
2017-01-07T01:28:55.103Z,91.2
2017-01-07T01:29:55.053Z,90.83
2017-01-07T01:30:55.006Z,90.73
2017-01-07T01:31:54.957Z,90.64
2017-01-07T01:32:54.910Z,91.11
2017-01-07T01:33:54.861Z,91.11
2017-01-07T01:34:54.813Z,91.11
2017-01-07T01:35:54.765Z,91.02
2017-01-07T01:36:54.716Z,91.02
2017-01-07T01:37:54.670Z,91.11
2017-01-07T01:38:54.619Z,91.02
2017-01-07T01:39:54.572Z,91.02
2017-01-07T01:40:54.524Z,90.73
2017-01-07T01:41:54.476Z,91.11
2017-01-07T01:42:54.430Z,91.11
2017-01-07T01:43:54.381Z,91.02
2017-01-07T01:44:54.332Z,91.2
2017-01-07T01:45:54.283Z,91.39
2017-01-07T01:46:54.235Z,91.11
2017-01-07T01:47:54.188Z,90.92
2017-01-07T01:48:54.140Z,90.83
2017-01-07T01:49:54.090Z,91.11
2017-01-07T01:50:54.045Z,91.11
2017-01-07T01:51:53.996Z,91.11
2017-01-07T01:52:53.947Z,91.11
2017-01-07T01:53:53.899Z,91.11
2017-01-07T01:54:53.857Z,91.02
2017-01-07T01:55:53.803Z,90.92
2017-01-07T01:56:53.755Z,90.92
2017-01-07T01:57:53.709Z,91.02
2017-01-07T01:58:53.661Z,91.11
2017-01-07T01:59:53.613Z,90.64
2017-01-07T02:00:53.563Z,90.92
2017-01-07T02:01:53.517Z,90.64
2017-01-07T02:02:53.468Z,90.83
2017-01-07T02:03:53.419Z,90.83
2017-01-07T02:04:53.373Z,91.02
2017-01-07T02:05:53.325Z,90.92
2017-01-07T02:06:53.277Z,90.83
2017-01-07T02:07:53.228Z,90.83
2017-01-07T02:08:53.181Z,90.64
2017-01-07T02:09:53.133Z,90.83
2017-01-07T02:10:53.086Z,91.11
2017-01-07T02:11:53.038Z,91.11
2017-01-07T02:12:52.992Z,90.36
2017-01-07T02:13:52.942Z,90.26
2017-01-07T02:14:52.893Z,91.02
2017-01-07T02:15:52.846Z,91.11
2017-01-07T02:16:52.799Z,90.36
2017-01-07T02:17:52.750Z,90.36
2017-01-07T02:18:52.704Z,90.26
2017-01-07T02:19:52.654Z,90.55
2017-01-07T02:20:52.609Z,90.36
2017-01-07T02:21:52.560Z,90.36
2017-01-07T02:22:52.515Z,90.45
2017-01-07T02:23:52.464Z,90.36
2017-01-07T02:24:52.418Z,90.45
2017-01-07T02:25:52.369Z,89.79
2017-01-07T02:26:52.321Z,90.17
2017-01-07T02:27:52.273Z,89.51
2017-01-07T02:28:52.226Z,89.42
2017-01-07T02:29:52.178Z,89.51
2017-01-07T02:30:52.129Z,89.51
2017-01-07T02:31:52.082Z,89.61
2017-01-07T02:32:52.033Z,89.79
2017-01-07T02:33:51.990Z,90.08
2017-01-07T02:34:51.939Z,89.7
2017-01-07T02:35:51.891Z,90.17
2017-01-07T02:36:51.843Z,90.26
2017-01-07T02:37:51.796Z,90.08
2017-01-07T02:38:51.749Z,90.17
2017-01-07T02:39:51.700Z,90.55
2017-01-07T02:40:51.652Z,90.26
2017-01-07T02:41:51.606Z,89.89
2017-01-07T02:42:51.558Z,89.98
2017-01-07T02:43:51.509Z,89.89
2017-01-07T02:44:51.462Z,89.7
2017-01-07T02:45:51.416Z,89.7
2017-01-07T02:46:51.367Z,89.7
2017-01-07T02:47:51.318Z,89.79
2017-01-07T02:48:51.271Z,89.79
2017-01-07T02:49:51.225Z,89.61
2017-01-07T02:50:51.180Z,89.61
2017-01-07T02:51:51.128Z,89.14
2017-01-07T02:52:51.081Z,89.79
2017-01-07T02:53:51.033Z,89.61
2017-01-07T02:54:50.986Z,89.61
2017-01-07T02:55:50.938Z,89.98
2017-01-07T02:56:50.891Z,89.61
2017-01-07T02:57:50.845Z,88.95
2017-01-07T02:58:50.795Z,88.95
2017-01-07T02:59:50.750Z,88.95
2017-01-07T03:00:50.700Z,88.76
2017-01-07T03:01:50.653Z,89.14
2017-01-07T03:02:50.606Z,89.23
2017-01-07T03:03:50.558Z,89.04
2017-01-07T03:04:50.513Z,89.04
2017-01-07T03:05:50.463Z,88.85
2017-01-07T03:06:50.416Z,88.76
2017-01-07T03:07:50.373Z,89.04
2017-01-07T03:08:50.322Z,89.23
2017-01-07T03:09:50.274Z,88.85
2017-01-07T03:10:50.227Z,88.67
2017-01-07T03:11:50.181Z,88.57
2017-01-07T03:12:50.133Z,88.57
2017-01-07T03:13:50.084Z,88.76
2017-01-07T03:14:50.037Z,88.76
2017-01-07T03:15:49.992Z,88.76
2017-01-07T03:16:49.943Z,88.1
2017-01-07T03:17:49.895Z,88.2
2017-01-07T03:18:49.850Z,88.39
2017-01-07T03:19:49.802Z,88.39
2017-01-07T03:20:49.753Z,88.1
2017-01-07T03:21:49.706Z,88.2
2017-01-07T03:22:49.658Z,88.76
2017-01-07T03:23:49.611Z,88.57
2017-01-07T03:24:49.564Z,88.85
2017-01-07T03:25:49.518Z,88.2
2017-01-07T03:26:49.469Z,88.39
2017-01-07T03:27:49.425Z,88.2
2017-01-07T03:28:49.375Z,88.39
2017-01-07T03:29:49.329Z,88.01
2017-01-07T03:30:49.282Z,87.92
2017-01-07T03:31:49.231Z,88.01
2017-01-07T03:32:49.186Z,87.82
2017-01-07T03:33:49.139Z,87.07
2017-01-07T03:34:49.091Z,87.54
2017-01-07T03:35:49.048Z,87.73
2017-01-07T03:36:48.996Z,87.73
2017-01-07T03:37:48.949Z,87.63
2017-01-07T03:38:48.903Z,87.92
2017-01-07T03:39:48.856Z,87.44
2017-01-07T03:40:48.819Z,87.44
2017-01-07T03:41:48.760Z,86.88
2017-01-07T03:42:48.712Z,86.78
2017-01-07T03:43:48.666Z,86.88
2017-01-07T03:44:48.620Z,87.73
2017-01-07T03:45:48.571Z,87.26
2017-01-07T03:46:48.524Z,87.82
2017-01-07T03:47:48.477Z,87.82
2017-01-07T03:48:48.430Z,88.57
2017-01-07T03:49:48.382Z,88.39
2017-01-07T03:50:48.335Z,88.1
2017-01-07T03:51:48.287Z,88.29
2017-01-07T03:52:48.241Z,88.2
2017-01-07T03:53:48.193Z,88.29
2017-01-07T03:54:48.152Z,88.57
2017-01-07T03:55:48.097Z,88.2
2017-01-07T03:56:48.053Z,88.01
2017-01-07T03:57:48.008Z,88.1
2017-01-07T03:58:47.960Z,88.29
2017-01-07T03:59:47.912Z,88.2
2017-01-07T04:00:47.863Z,88.48
2017-01-07T04:01:47.816Z,88.01
2017-01-07T04:02:47.774Z,88.48
2017-01-07T04:03:47.723Z,88.2
2017-01-07T04:04:47.675Z,88.1
2017-01-07T04:05:47.629Z,88.2
2017-01-07T04:06:47.582Z,88.1
2017-01-07T04:07:47.534Z,88.01
2017-01-07T04:08:47.489Z,88.1
2017-01-07T04:09:47.441Z,87.82
2017-01-07T04:10:47.393Z,87.73
2017-01-07T04:11:47.346Z,87.44
2017-01-07T04:12:47.301Z,87.73
2017-01-07T04:13:47.252Z,87.92
2017-01-07T04:14:47.205Z,87.16
2017-01-07T04:15:47.158Z,87.16
2017-01-07T04:16:47.111Z,87.73
2017-01-07T04:17:47.065Z,87.82
2017-01-07T04:18:47.015Z,88.01
2017-01-07T04:19:46.971Z,87.63
2017-01-07T04:20:46.923Z,87.54
2017-01-07T04:21:46.876Z,87.35
2017-01-07T04:22:46.830Z,86.97
2017-01-07T04:23:46.782Z,86.97
2017-01-07T04:24:46.734Z,87.07
2017-01-07T04:25:46.688Z,87.26
2017-01-07T04:26:46.641Z,86.88
2017-01-07T04:27:46.593Z,86.78
2017-01-07T04:28:46.546Z,86.78
2017-01-07T04:29:46.499Z,87.26
2017-01-07T04:30:46.452Z,87.44
2017-01-07T04:31:46.406Z,87.82
2017-01-07T04:32:46.358Z,88.01
2017-01-07T04:33:46.311Z,87.82
2017-01-07T04:34:46.264Z,87.63
2017-01-07T04:35:46.218Z,87.73
2017-01-07T04:36:46.170Z,87.54
2017-01-07T04:37:46.122Z,87.35
2017-01-07T04:38:46.076Z,87.54
2017-01-07T04:39:46.031Z,87.63
2017-01-07T04:40:45.986Z,87.16
2017-01-07T04:41:45.934Z,86.78
2017-01-07T04:42:45.887Z,86.88
2017-01-07T04:43:45.840Z,87.63
2017-01-07T04:44:45.793Z,87.63
2017-01-07T04:45:45.747Z,87.44
2017-01-07T04:46:45.699Z,87.07
2017-01-07T04:47:45.653Z,86.69
2017-01-07T04:48:45.604Z,86.78
2017-01-07T04:49:45.558Z,86.78
2017-01-07T04:50:45.512Z,86.5
2017-01-07T04:51:45.464Z,85.94
2017-01-07T04:52:45.416Z,86.6
2017-01-07T04:53:45.372Z,87.07
2017-01-07T04:54:45.322Z,86.78
2017-01-07T04:55:45.276Z,86.88
2017-01-07T04:56:45.229Z,86.31
2017-01-07T04:57:45.181Z,86.31
2017-01-07T04:58:45.135Z,85.94
2017-01-07T04:59:45.087Z,86.03
2017-01-07T05:00:45.041Z,85.94
2017-01-07T05:01:44.995Z,85.65
2017-01-07T05:02:44.948Z,85.94
2017-01-07T05:03:44.903Z,85.75
2017-01-07T05:04:44.852Z,85.75
2017-01-07T05:05:44.806Z,86.13
2017-01-07T05:06:44.759Z,86.41
2017-01-07T05:07:44.712Z,86.5
2017-01-07T05:08:44.664Z,86.5
2017-01-07T05:09:44.618Z,86.88
2017-01-07T05:10:44.574Z,87.07
2017-01-07T05:11:44.525Z,86.97
2017-01-07T05:12:44.477Z,86.88
2017-01-07T05:13:44.429Z,86.88
2017-01-07T05:14:44.384Z,87.49
2017-01-07T05:15:44.336Z,87.58
2017-01-07T05:16:44.289Z,86.92
2017-01-07T05:17:44.242Z,87.2
2017-01-07T05:18:44.198Z,87.02
2017-01-07T05:19:44.150Z,87.02
2017-01-07T05:20:44.106Z,87.02
2017-01-07T05:21:44.055Z,87.39
2017-01-07T05:22:44.014Z,86.88
2017-01-07T05:23:43.962Z,87.07
2017-01-07T05:24:43.915Z,86.6
2017-01-07T05:25:43.868Z,86.45
2017-01-07T05:26:43.822Z,85.94
2017-01-07T05:27:43.777Z,86.6
2017-01-07T05:28:43.729Z,86.78
2017-01-07T05:29:43.681Z,86.31
2017-01-07T05:30:43.639Z,86.6
2017-01-07T05:31:43.588Z,86.6
2017-01-07T05:32:43.543Z,86.5
2017-01-07T05:33:43.496Z,86.03
2017-01-07T05:34:43.449Z,85.56
2017-01-07T05:35:43.402Z,85.47
2017-01-07T05:36:43.355Z,85.56
2017-01-07T05:37:43.308Z,85.28
2017-01-07T05:38:43.261Z,85.47
2017-01-07T05:39:43.215Z,85.75
2017-01-07T05:40:43.168Z,84.9
2017-01-07T05:41:43.121Z,85.09
2017-01-07T05:42:43.073Z,85.28
2017-01-07T05:43:43.027Z,84.62
2017-01-07T05:44:42.980Z,84.9
2017-01-07T05:45:42.934Z,84.9
2017-01-07T05:46:42.887Z,84.81
2017-01-07T05:47:42.839Z,84.71
2017-01-07T05:48:42.792Z,84.52
2017-01-07T05:49:42.746Z,84.52
2017-01-07T05:50:42.697Z,84.71
2017-01-07T05:51:42.652Z,84.52
2017-01-07T05:52:42.606Z,85.09
2017-01-07T05:53:42.558Z,84.71
2017-01-07T05:54:42.511Z,84.62
2017-01-07T05:55:42.464Z,84.52
2017-01-07T05:56:42.417Z,84.43
2017-01-07T05:57:42.371Z,84.62
2017-01-07T05:58:42.327Z,84.81
2017-01-07T05:59:42.277Z,84.99
2017-01-07T06:00:42.230Z,85.09
2017-01-07T06:01:42.184Z,85.94
2017-01-07T06:02:42.136Z,85.94
2017-01-07T06:03:42.090Z,85.65
2017-01-07T06:04:42.043Z,85.75
2017-01-07T06:05:41.995Z,85.75
2017-01-07T06:06:41.949Z,85.75
2017-01-07T06:07:41.904Z,85.65
2017-01-07T06:08:41.855Z,86.17
2017-01-07T06:09:41.810Z,86.26
2017-01-07T06:10:41.766Z,86.26
2017-01-07T06:11:41.715Z,86.83
2017-01-07T06:12:41.668Z,86.54
2017-01-07T06:13:41.621Z,86.64
2017-01-07T06:14:41.575Z,86.83
2017-01-07T06:15:41.528Z,86.64
2017-01-07T06:16:41.480Z,86.54
2017-01-07T06:17:41.435Z,86.54
2017-01-07T06:18:41.388Z,86.73
2017-01-07T06:19:41.340Z,86.17
2017-01-07T06:20:41.295Z,86.36
2017-01-07T06:21:41.248Z,86.64
2017-01-07T06:22:41.201Z,86.83
2017-01-07T06:23:41.154Z,87.11
2017-01-07T06:24:41.108Z,86.64
2017-01-07T06:25:41.063Z,86.17
2017-01-07T06:26:41.013Z,86.54
2017-01-07T06:27:40.969Z,86.17
2017-01-07T06:28:40.921Z,86.07
2017-01-07T06:29:40.875Z,86.45
2017-01-07T06:30:40.828Z,86.64
2017-01-07T06:31:40.781Z,86.64
2017-01-07T06:32:40.736Z,86.64
2017-01-07T06:33:40.689Z,86.36
2017-01-07T06:34:40.641Z,86.07
2017-01-07T06:35:40.594Z,86.17
2017-01-07T06:36:40.547Z,85.79
2017-01-07T06:37:40.508Z,85.98
2017-01-07T06:38:40.458Z,85.7
2017-01-07T06:39:40.408Z,85.6
2017-01-07T06:40:40.360Z,85.41
2017-01-07T06:41:40.314Z,85.41
2017-01-07T06:42:40.267Z,85.6
2017-01-07T06:43:40.221Z,85.98
2017-01-07T06:44:40.174Z,85.79
2017-01-07T06:45:40.128Z,85.79
2017-01-07T06:46:40.080Z,85.98
2017-01-07T06:47:40.034Z,86.36
2017-01-07T06:48:39.987Z,86.17
2017-01-07T06:49:39.939Z,86.54
2017-01-07T06:50:39.895Z,86.36
2017-01-07T06:51:39.847Z,85.7
2017-01-07T06:52:39.799Z,86.17
2017-01-07T06:53:39.754Z,86.36
2017-01-07T06:54:39.706Z,86.17
2017-01-07T06:55:39.661Z,86.17
2017-01-07T06:56:39.613Z,86.54
2017-01-07T06:57:39.567Z,86.64
2017-01-07T06:58:39.521Z,86.64
2017-01-07T06:59:39.475Z,86.92
2017-01-07T07:00:39.439Z,87.02
2017-01-07T07:01:39.380Z,86.92
2017-01-07T07:02:39.335Z,86.73
2017-01-07T07:03:39.287Z,86.73
2017-01-07T07:04:39.240Z,86.73
2017-01-07T07:05:39.196Z,86.92
2017-01-07T07:06:39.149Z,86.83
2017-01-07T07:07:39.103Z,86.45
2017-01-07T07:08:39.056Z,86.45
2017-01-07T07:09:39.012Z,86.07
2017-01-07T07:10:38.962Z,86.54
2017-01-07T07:11:38.917Z,86.54
2017-01-07T07:12:38.871Z,86.17
2017-01-07T07:13:38.825Z,86.36
2017-01-07T07:14:38.776Z,86.36
2017-01-07T07:15:38.730Z,86.26
2017-01-07T07:16:38.683Z,86.26
2017-01-07T07:17:38.637Z,86.07
2017-01-07T07:18:38.591Z,86.17
2017-01-07T07:19:38.545Z,86.17
2017-01-07T07:20:38.499Z,86.54
2017-01-07T07:21:38.452Z,86.26
2017-01-07T07:22:38.407Z,86.17
2017-01-07T07:23:38.359Z,86.17
2017-01-07T07:24:38.312Z,85.7
2017-01-07T07:25:38.266Z,85.41
2017-01-07T07:26:38.220Z,85.6
2017-01-07T07:27:38.176Z,85.32
2017-01-07T07:28:38.127Z,85.04
2017-01-07T07:29:38.080Z,84.85
2017-01-07T07:30:38.034Z,84.94
2017-01-07T07:31:37.988Z,84.66
2017-01-07T07:32:37.941Z,84.66
2017-01-07T07:33:37.896Z,84.47
2017-01-07T07:34:37.848Z,84.38
2017-01-07T07:35:37.802Z,84.66
2017-01-07T07:36:37.756Z,84.56
2017-01-07T07:37:37.709Z,84.56
2017-01-07T07:38:37.663Z,84.66
2017-01-07T07:39:37.617Z,84.28
2017-01-07T07:40:37.570Z,84.47
2017-01-07T07:41:37.524Z,84.56
2017-01-07T07:42:37.477Z,84.66
2017-01-07T07:43:37.430Z,85.13
2017-01-07T07:44:37.385Z,85.41
2017-01-07T07:45:37.337Z,84.94
2017-01-07T07:46:37.831Z,85.22
2017-01-07T07:47:37.787Z,85.04
2017-01-07T07:48:37.738Z,85.22
2017-01-07T07:49:37.309Z,85.13
2017-01-07T07:50:37.650Z,85.13
2017-01-07T07:51:37.212Z,85.32
2017-01-07T07:52:37.169Z,85.22
2017-01-07T07:53:37.502Z,84.94
2017-01-07T07:54:37.460Z,84.38
2017-01-07T07:55:37.412Z,84.56
2017-01-07T07:56:37.369Z,83.34
2017-01-07T07:57:37.323Z,83.06
2017-01-07T07:58:37.278Z,83.25
2017-01-07T07:59:37.232Z,82.4
2017-01-07T08:00:37.182Z,82.68
2017-01-07T08:01:37.137Z,82.4
2017-01-07T08:02:37.088Z,82.68
2017-01-07T08:03:37.049Z,82.97
2017-01-07T08:04:36.998Z,82.78
2017-01-07T08:05:36.567Z,82.97
2017-01-07T08:06:36.523Z,83.25
2017-01-07T08:07:36.858Z,83.15
2017-01-07T08:08:36.812Z,83.44
2017-01-07T08:09:36.763Z,83.15
2017-01-07T08:10:36.720Z,83.34
2017-01-07T08:11:36.674Z,83.25
2017-01-07T08:12:36.624Z,83.53
2017-01-07T08:13:36.193Z,83.34
2017-01-07T08:14:36.537Z,82.97
2017-01-07T08:15:36.489Z,83.25
2017-01-07T08:16:36.439Z,83.34
2017-01-07T08:17:36.392Z,83.34
2017-01-07T08:18:36.345Z,83.34
2017-01-07T08:19:35.914Z,83.25
2017-01-07T08:20:36.256Z,83.34
2017-01-07T08:21:36.206Z,82.78
2017-01-07T08:22:36.163Z,82.78
2017-01-07T08:23:36.115Z,82.78
2017-01-07T08:24:36.065Z,82.87
2017-01-07T08:25:36.019Z,82.87
2017-01-07T08:26:35.974Z,82.4
2017-01-07T08:27:35.926Z,82.59
2017-01-07T08:28:35.884Z,82.68
2017-01-07T08:29:35.867Z,82.5
2017-01-07T08:30:35.788Z,82.5
2017-01-07T08:31:35.769Z,82.31
2017-01-07T08:32:35.697Z,82.4
2017-01-07T08:33:35.645Z,82.68
2017-01-07T08:34:35.604Z,82.4
2017-01-07T08:35:35.554Z,81.65
2017-01-07T08:36:35.508Z,81.84
2017-01-07T08:37:35.463Z,81.84
2017-01-07T08:38:35.423Z,81.84
2017-01-07T08:39:35.368Z,81.84
2017-01-07T08:40:35.321Z,81.84
2017-01-07T08:41:35.275Z,82.03
2017-01-07T08:42:35.229Z,81.27
2017-01-07T08:43:35.184Z,81.31
2017-01-07T08:44:35.137Z,81.31
2017-01-07T08:45:35.092Z,81.69
2017-01-07T08:46:35.044Z,81.22
2017-01-07T08:47:35.006Z,80.84
2017-01-07T08:48:34.952Z,81.03
2017-01-07T08:49:34.907Z,81.03
2017-01-07T08:50:34.863Z,81.12
2017-01-07T08:51:34.816Z,81.22
2017-01-07T08:52:34.380Z,80.84
2017-01-07T08:53:34.720Z,81.69
2017-01-07T08:54:34.676Z,81.22
2017-01-07T08:55:34.628Z,81.22
2017-01-07T08:56:34.200Z,80.84
2017-01-07T08:57:34.534Z,81.31
2017-01-07T08:58:34.491Z,81.69
2017-01-07T08:59:34.060Z,81.31
2017-01-07T09:00:34.397Z,80.84
2017-01-07T09:01:34.356Z,81.12
2017-01-07T09:02:33.920Z,80.93
2017-01-07T09:03:34.260Z,81.12
2017-01-07T09:04:34.218Z,81.41
2017-01-07T09:05:34.168Z,80.93
2017-01-07T09:06:34.121Z,80.65
2017-01-07T09:07:34.077Z,80.65
2017-01-07T09:08:34.033Z,80.18
2017-01-07T09:09:33.982Z,80.37
2017-01-07T09:10:33.555Z,80.37
2017-01-07T09:11:33.893Z,80.18
2017-01-07T09:12:33.846Z,80.18
2017-01-07T09:13:33.797Z,79.61
2017-01-07T09:14:33.759Z,79.52
2017-01-07T09:15:33.705Z,79.52
2017-01-07T09:16:33.661Z,79.52
2017-01-07T09:17:33.234Z,79.43
2017-01-07T09:18:33.184Z,79.71
2017-01-07T09:19:33.548Z,79.61
2017-01-07T09:20:33.477Z,79.52
2017-01-07T09:21:33.432Z,79.43
2017-01-07T09:22:33.382Z,79.43
2017-01-07T09:23:33.341Z,79.33
2017-01-07T09:24:33.291Z,79.14
2017-01-07T09:25:32.862Z,78.86
2017-01-07T09:26:33.197Z,78.58
2017-01-07T09:27:33.152Z,78.49
2017-01-07T09:28:33.111Z,78.11
2017-01-07T09:29:33.061Z,78.02
2017-01-07T09:30:33.015Z,77.83
2017-01-07T09:31:32.972Z,78.58
2017-01-07T09:32:32.927Z,78.3
2017-01-07T09:33:32.877Z,78.58
2017-01-07T09:34:32.447Z,78.67
2017-01-07T09:35:32.404Z,78.67
2017-01-07T09:36:32.743Z,78.39
2017-01-07T09:37:32.704Z,78.39
2017-01-07T09:38:32.650Z,77.26
2017-01-07T09:39:32.221Z,77.26
2017-01-07T09:40:32.559Z,76.79
2017-01-07T09:41:32.514Z,76.6
2017-01-07T09:42:32.082Z,77.01
2017-01-07T09:43:32.422Z,76.92
2017-01-07T09:44:32.376Z,76.92
2017-01-07T09:45:32.332Z,77.49
2017-01-07T09:46:31.904Z,77.3
2017-01-07T09:47:32.242Z,77.67
2017-01-07T09:48:32.200Z,77.96
2017-01-07T09:49:32.152Z,77.96
2017-01-07T09:50:31.718Z,78.34
2017-01-07T09:51:32.063Z,78.24
2017-01-07T09:52:32.013Z,78.43
2017-01-07T09:53:31.968Z,77.67
2017-01-07T09:54:31.930Z,77.58
2017-01-07T09:55:31.881Z,77.39
2017-01-07T09:56:31.840Z,76.92
2017-01-07T09:57:31.793Z,76.54
2017-01-07T09:58:31.740Z,76.54
2017-01-07T09:59:31.701Z,76.92
2017-01-07T10:00:31.655Z,77.11
2017-01-07T10:01:31.609Z,76.82
2017-01-07T10:02:31.563Z,76.64
2017-01-07T10:03:31.519Z,76.45
2017-01-07T10:04:31.475Z,76.73
2017-01-07T10:05:31.046Z,76.17
2017-01-07T10:06:31.387Z,75.98
2017-01-07T10:07:30.954Z,75.6
2017-01-07T10:08:31.297Z,75.51
2017-01-07T10:09:30.863Z,75.51
2017-01-07T10:10:31.206Z,75.6
2017-01-07T10:11:31.161Z,75.7
2017-01-07T10:12:31.117Z,75.54
2017-01-07T10:13:31.076Z,75.26
2017-01-07T10:14:31.027Z,75.42
2017-01-07T10:15:30.987Z,74.98
2017-01-07T10:16:30.941Z,75.04
2017-01-07T10:17:30.522Z,75.13
2017-01-07T10:18:30.464Z,75.23
2017-01-07T10:19:30.809Z,75.32
2017-01-07T10:20:30.376Z,75.64
2017-01-07T10:21:30.330Z,75.54
2017-01-07T10:22:30.675Z,75.45
2017-01-07T10:23:30.649Z,75.45
2017-01-07T10:24:30.586Z,75.36
2017-01-07T10:25:30.153Z,75.17
2017-01-07T10:26:30.496Z,74.79
2017-01-07T10:27:30.456Z,74.98
2017-01-07T10:28:30.414Z,75.36
2017-01-07T10:29:30.361Z,75.17
2017-01-07T10:30:30.316Z,75.17
2017-01-07T10:31:30.271Z,74.98
2017-01-07T10:32:29.844Z,74.98
2017-01-07T10:33:30.188Z,75.17
2017-01-07T10:34:30.138Z,74.88
2017-01-07T10:35:30.096Z,75.07
2017-01-07T10:36:30.050Z,75.26
2017-01-07T10:37:30.006Z,75.17
2017-01-07T10:38:29.964Z,74.88
2017-01-07T10:39:29.918Z,75.17
2017-01-07T10:40:29.875Z,74.98
2017-01-07T10:41:29.445Z,74.6
2017-01-07T10:42:29.786Z,74.22
2017-01-07T10:43:29.742Z,74.88
2017-01-07T10:44:29.697Z,74.98
2017-01-07T10:45:29.654Z,74.04
2017-01-07T10:46:29.610Z,73.1
2017-01-07T10:47:29.574Z,72.53
2017-01-07T10:48:29.525Z,72.44
2017-01-07T10:49:29.477Z,71.96
2017-01-07T10:50:29.434Z,71.77
2017-01-07T10:51:29.006Z,72.15
2017-01-07T10:52:29.348Z,72.53
2017-01-07T10:53:29.318Z,71.87
2017-01-07T10:54:29.266Z,72.15
2017-01-07T10:55:29.215Z,71.77
2017-01-07T10:56:29.172Z,72.15
2017-01-07T10:57:29.124Z,72.25
2017-01-07T10:58:28.703Z,71.77
2017-01-07T10:59:28.653Z,72.44
2017-01-07T11:00:28.994Z,72.44
2017-01-07T11:01:28.567Z,71.96
2017-01-07T11:02:28.912Z,72.34
2017-01-07T11:03:28.862Z,72.34
2017-01-07T11:04:28.817Z,72.15
2017-01-07T11:05:28.777Z,72.44
2017-01-07T11:06:28.734Z,73.28
2017-01-07T11:07:28.302Z,73.66
2017-01-07T11:08:28.644Z,73.38
2017-01-07T11:09:28.600Z,73.47
2017-01-07T11:10:28.555Z,72.53
2017-01-07T11:11:28.514Z,72.15
2017-01-07T11:12:28.083Z,72.15
2017-01-07T11:13:28.423Z,71.96
2017-01-07T11:14:28.380Z,71.68
2017-01-07T11:15:28.332Z,72.34
2017-01-07T11:16:28.288Z,72.91
2017-01-07T11:17:28.247Z,73
2017-01-07T11:18:28.204Z,73.57
2017-01-07T11:19:28.157Z,73
2017-01-07T11:20:28.113Z,72.91
2017-01-07T11:21:28.071Z,73.1
2017-01-07T11:22:28.024Z,72.91
2017-01-07T11:23:27.604Z,72.81
2017-01-07T11:24:27.938Z,72.34
2017-01-07T11:25:27.895Z,72.15
2017-01-07T11:26:27.467Z,72.15
2017-01-07T11:27:27.808Z,72.25
2017-01-07T11:28:27.768Z,72.15
2017-01-07T11:29:27.721Z,71.96
2017-01-07T11:30:27.673Z,72.62
2017-01-07T11:31:27.632Z,72.91
2017-01-07T11:32:27.593Z,73.47
2017-01-07T11:33:27.157Z,73.66
2017-01-07T11:34:27.501Z,73.13
2017-01-07T11:35:27.455Z,72.91
2017-01-07T11:36:27.415Z,73.28
2017-01-07T11:37:27.368Z,73.57
2017-01-07T11:38:26.939Z,73.28
2017-01-07T11:39:26.895Z,73.79
2017-01-07T11:40:27.237Z,74.26
2017-01-07T11:41:26.808Z,74.64
2017-01-07T11:42:27.152Z,74.55
2017-01-07T11:43:27.108Z,74.36
2017-01-07T11:44:27.060Z,74.36
2017-01-07T11:45:27.020Z,74.45
2017-01-07T11:46:26.974Z,74.45
2017-01-07T11:47:26.932Z,73.79
2017-01-07T11:48:26.505Z,74.26
2017-01-07T11:49:26.457Z,74.36
2017-01-07T11:50:26.809Z,74.26
2017-01-07T11:51:26.372Z,73.88
2017-01-07T11:52:26.720Z,73.88
2017-01-07T11:53:26.673Z,73.41
2017-01-07T11:54:26.632Z,73.22
2017-01-07T11:55:26.585Z,73.41
2017-01-07T11:56:26.540Z,73.41
2017-01-07T11:57:26.500Z,73.51
2017-01-07T11:58:26.454Z,73.32
2017-01-07T11:59:26.412Z,72.56
2017-01-07T12:00:26.375Z,72.79
2017-01-07T12:01:26.325Z,72.28
2017-01-07T12:02:26.280Z,71.94
2017-01-07T12:03:26.238Z,72.22
2017-01-07T12:04:25.819Z,71.94
2017-01-07T12:05:26.152Z,72.13
2017-01-07T12:06:26.109Z,72.22
2017-01-07T12:07:25.680Z,71.56
2017-01-07T12:08:26.023Z,71.56
2017-01-07T12:09:25.981Z,71.37
2017-01-07T12:10:25.940Z,71.56
2017-01-07T12:11:25.896Z,71.56
2017-01-07T12:12:25.472Z,72.32
2017-01-07T12:13:25.425Z,71
2017-01-07T12:14:25.767Z,71.56
2017-01-07T12:15:25.724Z,71.09
2017-01-07T12:16:25.678Z,71.56
2017-01-07T12:17:25.636Z,71.09
2017-01-07T12:18:25.596Z,71.09
2017-01-07T12:19:25.547Z,70.72
2017-01-07T12:20:25.123Z,70.62
2017-01-07T12:21:25.464Z,71.19
2017-01-07T12:22:25.422Z,70.72
2017-01-07T12:23:25.381Z,70.72
2017-01-07T12:24:25.337Z,70.81
2017-01-07T12:25:25.293Z,70.43
2017-01-07T12:26:25.249Z,71.28
2017-01-07T12:27:24.822Z,70.72
2017-01-07T12:28:25.169Z,71.19
2017-01-07T12:29:25.122Z,70.72
2017-01-07T12:30:25.078Z,70.15
2017-01-07T12:31:25.041Z,70.34
2017-01-07T12:32:25.000Z,70.62
2017-01-07T12:33:24.951Z,70.24
2017-01-07T12:34:24.909Z,70.24
2017-01-07T12:35:24.863Z,69.96
2017-01-07T12:36:24.819Z,70.24
2017-01-07T12:37:24.779Z,70.24
2017-01-07T12:38:24.357Z,70.53
2017-01-07T12:39:24.694Z,71
2017-01-07T12:40:24.653Z,71
2017-01-07T12:41:24.608Z,70.24
2017-01-07T12:42:24.564Z,70.24
2017-01-07T12:43:24.136Z,70.72
2017-01-07T12:44:24.480Z,70.53
2017-01-07T12:45:24.051Z,70.34
2017-01-07T12:46:24.394Z,70.15
2017-01-07T12:47:24.352Z,70.53
2017-01-07T12:48:24.312Z,70.62
2017-01-07T12:49:23.881Z,70.72
2017-01-07T12:50:24.222Z,70.9
2017-01-07T12:51:24.177Z,70.53
2017-01-07T12:52:24.142Z,71.09
2017-01-07T12:53:24.103Z,71.19
2017-01-07T12:54:24.051Z,71.47
2017-01-07T12:55:24.007Z,71.37